43 Max
29 km/h
17 Mini

LFMY 091900Z AUTO 30012KT CAVOK 11/02 Q1016

TAF LFMY 091400Z 0915/1015 30015G25KT CAVOK BECMG 0921/0923 33030G40KT TEMPO 1002/1010 34035G50KT